sensor_id;sensor_type;location;lat;lon;timestamp;temperature;humidity
61000;SHT31;46879;45.658;11.814;2023-12-28T00:00:27;16.77;72.28
61000;SHT31;46879;45.658;11.814;2023-12-28T00:05:27;16.77;72.24
61000;SHT31;46879;45.658;11.814;2023-12-28T00:10:28;16.78;72.26
61000;SHT31;46879;45.658;11.814;2023-12-28T00:15:28;16.75;72.30
61000;SHT31;46879;45.658;11.814;2023-12-28T00:20:29;16.77;72.38
61000;SHT31;46879;45.658;11.814;2023-12-28T00:25:30;16.75;72.32
61000;SHT31;46879;45.658;11.814;2023-12-28T00:30:30;16.75;72.33
61000;SHT31;46879;45.658;11.814;2023-12-28T00:35:32;16.77;72.31
61000;SHT31;46879;45.658;11.814;2023-12-28T00:40:33;16.77;72.32
61000;SHT31;46879;45.658;11.814;2023-12-28T00:45:33;16.77;72.23
61000;SHT31;46879;45.658;11.814;2023-12-28T00:50:34;16.75;72.37
61000;SHT31;46879;45.658;11.814;2023-12-28T00:55:34;16.77;72.38
61000;SHT31;46879;45.658;11.814;2023-12-28T01:00:35;16.77;72.31
61000;SHT31;46879;45.658;11.814;2023-12-28T01:05:35;16.77;72.26
61000;SHT31;46879;45.658;11.814;2023-12-28T01:10:36;16.77;72.42
61000;SHT31;46879;45.658;11.814;2023-12-28T01:15:37;16.77;72.29
61000;SHT31;46879;45.658;11.814;2023-12-28T01:20:37;16.80;72.30
61000;SHT31;46879;45.658;11.814;2023-12-28T01:25:38;16.75;72.41
61000;SHT31;46879;45.658;11.814;2023-12-28T01:30:38;16.74;72.42
61000;SHT31;46879;45.658;11.814;2023-12-28T01:35:39;16.74;72.48
61000;SHT31;46879;45.658;11.814;2023-12-28T01:40:45;16.72;72.57
61000;SHT31;46879;45.658;11.814;2023-12-28T01:45:46;16.74;72.61
61000;SHT31;46879;45.658;11.814;2023-12-28T01:50:46;16.72;72.44
61000;SHT31;46879;45.658;11.814;2023-12-28T01:55:47;16.72;72.57
61000;SHT31;46879;45.658;11.814;2023-12-28T02:00:49;16.74;72.74
61000;SHT31;46879;45.658;11.814;2023-12-28T02:05:51;16.72;72.56
61000;SHT31;46879;45.658;11.814;2023-12-28T02:10:52;16.71;72.96
61000;SHT31;46879;45.658;11.814;2023-12-28T02:16:15;16.75;73.06
61000;SHT31;46879;45.658;11.814;2023-12-28T02:21:17;16.71;73.25
61000;SHT31;46879;45.658;11.814;2023-12-28T02:26:18;16.75;73.12
61000;SHT31;46879;45.658;11.814;2023-12-28T02:31:28;16.74;72.91
61000;SHT31;46879;45.658;11.814;2023-12-28T02:36:34;16.72;72.81
61000;SHT31;46879;45.658;11.814;2023-12-28T02:41:35;16.72;72.95
61000;SHT31;46879;45.658;11.814;2023-12-28T02:46:36;16.74;72.77
61000;SHT31;46879;45.658;11.814;2023-12-28T02:51:36;16.74;72.94
61000;SHT31;46879;45.658;11.814;2023-12-28T02:56:40;16.74;72.86
61000;SHT31;46879;45.658;11.814;2023-12-28T03:01:41;16.74;72.96
61000;SHT31;46879;45.658;11.814;2023-12-28T03:06:42;16.74;72.74
61000;SHT31;46879;45.658;11.814;2023-12-28T03:11:46;16.74;72.77
61000;SHT31;46879;45.658;11.814;2023-12-28T03:16:47;16.72;72.82
61000;SHT31;46879;45.658;11.814;2023-12-28T03:21:47;16.74;72.86
61000;SHT31;46879;45.658;11.814;2023-12-28T03:26:48;16.71;72.86
61000;SHT31;46879;45.658;11.814;2023-12-28T03:31:48;16.72;72.78
61000;SHT31;46879;45.658;11.814;2023-12-28T03:36:50;16.74;72.96
61000;SHT31;46879;45.658;11.814;2023-12-28T03:41:50;16.71;72.84
61000;SHT31;46879;45.658;11.814;2023-12-28T03:46:53;16.72;72.92
61000;SHT31;46879;45.658;11.814;2023-12-28T03:51:53;16.74;72.94
61000;SHT31;46879;45.658;11.814;2023-12-28T03:56:54;16.72;72.99
61000;SHT31;46879;45.658;11.814;2023-12-28T04:01:55;16.72;73.01
61000;SHT31;46879;45.658;11.814;2023-12-28T04:06:55;16.71;73.06
61000;SHT31;46879;45.658;11.814;2023-12-28T04:11:56;16.70;73.40
61000;SHT31;46879;45.658;11.814;2023-12-28T04:16:56;16.72;73.17
61000;SHT31;46879;45.658;11.814;2023-12-28T04:21:57;16.71;72.97
61000;SHT31;46879;45.658;11.814;2023-12-28T04:26:58;16.71;73.16
61000;SHT31;46879;45.658;11.814;2023-12-28T04:31:58;16.70;73.07
61000;SHT31;46879;45.658;11.814;2023-12-28T04:36:59;16.71;73.08
61000;SHT31;46879;45.658;11.814;2023-12-28T04:41:59;16.71;73.17
61000;SHT31;46879;45.658;11.814;2023-12-28T04:47:00;16.72;73.28
61000;SHT31;46879;45.658;11.814;2023-12-28T04:52:02;16.68;73.10
61000;SHT31;46879;45.658;11.814;2023-12-28T04:57:03;16.74;73.08
61000;SHT31;46879;45.658;11.814;2023-12-28T05:02:04;16.70;73.11
61000;SHT31;46879;45.658;11.814;2023-12-28T05:07:04;16.72;73.00
61000;SHT31;46879;45.658;11.814;2023-12-28T05:12:06;16.71;73.13
61000;SHT31;46879;45.658;11.814;2023-12-28T05:17:06;16.72;73.02
61000;SHT31;46879;45.658;11.814;2023-12-28T05:22:07;16.70;73.08
61000;SHT31;46879;45.658;11.814;2023-12-28T05:27:11;16.70;73.05
61000;SHT31;46879;45.658;11.814;2023-12-28T05:32:11;16.68;73.00
61000;SHT31;46879;45.658;11.814;2023-12-28T05:37:12;16.70;72.96
61000;SHT31;46879;45.658;11.814;2023-12-28T05:42:12;16.71;72.99
61000;SHT31;46879;45.658;11.814;2023-12-28T05:47:13;16.70;73.08
61000;SHT31;46879;45.658;11.814;2023-12-28T05:52:14;16.71;73.03
61000;SHT31;46879;45.658;11.814;2023-12-28T05:57:16;16.68;73.05
61000;SHT31;46879;45.658;11.814;2023-12-28T06:02:17;16.68;73.15
61000;SHT31;46879;45.658;11.814;2023-12-28T06:07:18;16.70;73.06
61000;SHT31;46879;45.658;11.814;2023-12-28T06:12:18;16.70;73.09
61000;SHT31;46879;45.658;11.814;2023-12-28T06:17:19;16.70;73.00
61000;SHT31;46879;45.658;11.814;2023-12-28T06:22:19;16.67;73.29
61000;SHT31;46879;45.658;11.814;2023-12-28T06:27:21;16.70;73.33
61000;SHT31;46879;45.658;11.814;2023-12-28T06:32:21;16.72;73.11
61000;SHT31;46879;45.658;11.814;2023-12-28T06:37:22;16.71;73.08
61000;SHT31;46879;45.658;11.814;2023-12-28T06:42:22;16.70;73.16
61000;SHT31;46879;45.658;11.814;2023-12-28T06:47:23;16.70;73.04
61000;SHT31;46879;45.658;11.814;2023-12-28T06:52:23;16.70;73.51
61000;SHT31;46879;45.658;11.814;2023-12-28T06:57:24;16.71;74.16
61000;SHT31;46879;45.658;11.814;2023-12-28T07:02:25;16.70;73.82
61000;SHT31;46879;45.658;11.814;2023-12-28T07:07:25;16.68;73.41
61000;SHT31;46879;45.658;11.814;2023-12-28T07:12:26;16.67;73.16
61000;SHT31;46879;45.658;11.814;2023-12-28T07:17:26;16.72;72.42
61000;SHT31;46879;45.658;11.814;2023-12-28T07:22:27;16.72;72.44
61000;SHT31;46879;45.658;11.814;2023-12-28T07:27:28;16.74;71.66
61000;SHT31;46879;45.658;11.814;2023-12-28T07:32:29;16.72;71.30
61000;SHT31;46879;45.658;11.814;2023-12-28T07:37:30;16.74;70.91
61000;SHT31;46879;45.658;11.814;2023-12-28T07:42:31;16.71;70.89
61000;SHT31;46879;45.658;11.814;2023-12-28T07:47:31;16.72;70.99
61000;SHT31;46879;45.658;11.814;2023-12-28T07:52:32;16.75;71.13
61000;SHT31;46879;45.658;11.814;2023-12-28T07:57:33;16.74;71.18
61000;SHT31;46879;45.658;11.814;2023-12-28T08:02:34;16.77;71.23
61000;SHT31;46879;45.658;11.814;2023-12-28T08:07:35;16.82;71.35
61000;SHT31;46879;45.658;11.814;2023-12-28T08:12:35;16.84;71.96
61000;SHT31;46879;45.658;11.814;2023-12-28T08:17:36;16.91;72.11
61000;SHT31;46879;45.658;11.814;2023-12-28T08:22:36;16.89;72.62
61000;SHT31;46879;45.658;11.814;2023-12-28T08:27:37;16.91;72.73
61000;SHT31;46879;45.658;11.814;2023-12-28T08:32:38;16.88;72.73
61000;SHT31;46879;45.658;11.814;2023-12-28T08:37:38;16.87;72.61
61000;SHT31;46879;45.658;11.814;2023-12-28T08:42:39;16.85;72.68
61000;SHT31;46879;45.658;11.814;2023-12-28T08:47:40;16.88;72.70
61000;SHT31;46879;45.658;11.814;2023-12-28T08:52:40;16.82;72.63
61000;SHT31;46879;45.658;11.814;2023-12-28T08:57:41;16.88;72.55
61000;SHT31;46879;45.658;11.814;2023-12-28T09:02:42;16.84;72.58
61000;SHT31;46879;45.658;11.814;2023-12-28T09:07:43;16.84;72.49
61000;SHT31;46879;45.658;11.814;2023-12-28T09:12:43;16.82;72.27
61000;SHT31;46879;45.658;11.814;2023-12-28T09:17:44;16.82;72.22
61000;SHT31;46879;45.658;11.814;2023-12-28T09:22:45;16.82;72.25
61000;SHT31;46879;45.658;11.814;2023-12-28T09:27:46;16.85;72.08
61000;SHT31;46879;45.658;11.814;2023-12-28T09:32:46;16.84;72.05
61000;SHT31;46879;45.658;11.814;2023-12-28T09:37:47;16.82;72.00
61000;SHT31;46879;45.658;11.814;2023-12-28T09:43:24;16.82;71.89
61000;SHT31;46879;45.658;11.814;2023-12-28T09:48:30;16.84;71.94
61000;SHT31;46879;45.658;11.814;2023-12-28T09:53:32;16.82;71.87
61000;SHT31;46879;45.658;11.814;2023-12-28T09:58:33;16.82;71.92
61000;SHT31;46879;45.658;11.814;2023-12-28T10:03:36;16.81;71.78
61000;SHT31;46879;45.658;11.814;2023-12-28T10:08:36;16.82;71.72
61000;SHT31;46879;45.658;11.814;2023-12-28T10:13:37;16.81;71.71
61000;SHT31;46879;45.658;11.814;2023-12-28T10:18:44;16.80;71.65
61000;SHT31;46879;45.658;11.814;2023-12-28T10:23:45;16.82;71.54
61000;SHT31;46879;45.658;11.814;2023-12-28T10:28:45;16.81;71.48
61000;SHT31;46879;45.658;11.814;2023-12-28T10:33:46;16.81;71.44
61000;SHT31;46879;45.658;11.814;2023-12-28T10:38:49;16.82;71.39
61000;SHT31;46879;45.658;11.814;2023-12-28T10:44:04;16.80;71.31
61000;SHT31;46879;45.658;11.814;2023-12-28T10:49:12;16.80;71.25
61000;SHT31;46879;45.658;11.814;2023-12-28T10:59:48;16.82;71.08
61000;SHT31;46879;45.658;11.814;2023-12-28T11:04:51;16.80;71.05
61000;SHT31;46879;45.658;11.814;2023-12-28T11:09:54;16.80;71.00
61000;SHT31;46879;45.658;11.814;2023-12-28T11:14:56;16.81;70.94
61000;SHT31;46879;45.658;11.814;2023-12-28T11:19:58;16.81;70.88
61000;SHT31;46879;45.658;11.814;2023-12-28T11:24:59;16.80;70.80
61000;SHT31;46879;45.658;11.814;2023-12-28T11:29:59;16.81;70.74
61000;SHT31;46879;45.658;11.814;2023-12-28T11:35:00;16.80;70.81
61000;SHT31;46879;45.658;11.814;2023-12-28T11:40:13;16.80;70.85
61000;SHT31;46879;45.658;11.814;2023-12-28T11:45:18;16.80;70.94
61000;SHT31;46879;45.658;11.814;2023-12-28T11:50:19;16.77;71.03
61000;SHT31;46879;45.658;11.814;2023-12-28T11:55:22;16.78;71.05
61000;SHT31;46879;45.658;11.814;2023-12-28T12:00:24;16.80;71.10
61000;SHT31;46879;45.658;11.814;2023-12-28T12:05:26;16.78;71.19
61000;SHT31;46879;45.658;11.814;2023-12-28T12:10:27;16.81;71.17
61000;SHT31;46879;45.658;11.814;2023-12-28T12:15:29;16.80;71.24
61000;SHT31;46879;45.658;11.814;2023-12-28T12:20:30;16.81;71.22
61000;SHT31;46879;45.658;11.814;2023-12-28T12:25:31;16.81;71.20
61000;SHT31;46879;45.658;11.814;2023-12-28T12:30:31;16.80;71.17
61000;SHT31;46879;45.658;11.814;2023-12-28T12:35:32;16.80;71.27
61000;SHT31;46879;45.658;11.814;2023-12-28T12:40:33;16.81;71.27
61000;SHT31;46879;45.658;11.814;2023-12-28T12:45:34;16.81;71.29
61000;SHT31;46879;45.658;11.814;2023-12-28T12:50:35;16.78;71.29
61000;SHT31;46879;45.658;11.814;2023-12-28T12:55:38;16.78;71.24
61000;SHT31;46879;45.658;11.814;2023-12-28T13:00:40;16.81;71.23
61000;SHT31;46879;45.658;11.814;2023-12-28T13:05:41;16.81;71.27
61000;SHT31;46879;45.658;11.814;2023-12-28T13:10:44;16.81;71.24
61000;SHT31;46879;45.658;11.814;2023-12-28T13:15:45;16.78;71.22
61000;SHT31;46879;45.658;11.814;2023-12-28T13:20:45;16.81;71.16
61000;SHT31;46879;45.658;11.814;2023-12-28T13:25:46;16.81;71.14
61000;SHT31;46879;45.658;11.814;2023-12-28T13:30:47;16.81;71.22
61000;SHT31;46879;45.658;11.814;2023-12-28T13:35:47;16.80;71.18
61000;SHT31;46879;45.658;11.814;2023-12-28T13:40:48;16.82;71.14
61000;SHT31;46879;45.658;11.814;2023-12-28T13:45:48;16.78;71.08
61000;SHT31;46879;45.658;11.814;2023-12-28T13:50:49;16.82;70.98
61000;SHT31;46879;45.658;11.814;2023-12-28T13:55:51;16.82;70.88
61000;SHT31;46879;45.658;11.814;2023-12-28T14:00:52;16.80;70.78
61000;SHT31;46879;45.658;11.814;2023-12-28T14:05:52;16.78;70.73
61000;SHT31;46879;45.658;11.814;2023-12-28T14:10:53;16.80;70.71
61000;SHT31;46879;45.658;11.814;2023-12-28T14:15:54;16.78;70.63
61000;SHT31;46879;45.658;11.814;2023-12-28T14:20:54;16.81;70.55
61000;SHT31;46879;45.658;11.814;2023-12-28T14:25:55;16.78;70.52
61000;SHT31;46879;45.658;11.814;2023-12-28T14:30:56;16.78;70.47
61000;SHT31;46879;45.658;11.814;2023-12-28T14:35:57;16.80;70.46
61000;SHT31;46879;45.658;11.814;2023-12-28T14:41:00;16.78;70.45
61000;SHT31;46879;45.658;11.814;2023-12-28T14:46:01;16.78;70.44
61000;SHT31;46879;45.658;11.814;2023-12-28T14:51:01;16.77;70.42
61000;SHT31;46879;45.658;11.814;2023-12-28T14:56:02;16.77;70.38
61000;SHT31;46879;45.658;11.814;2023-12-28T15:01:03;16.77;70.37
61000;SHT31;46879;45.658;11.814;2023-12-28T15:06:04;16.78;70.31
61000;SHT31;46879;45.658;11.814;2023-12-28T15:11:05;16.75;70.32
61000;SHT31;46879;45.658;11.814;2023-12-28T15:16:11;16.77;70.29
61000;SHT31;46879;45.658;11.814;2023-12-28T15:21:12;16.77;70.30
61000;SHT31;46879;45.658;11.814;2023-12-28T15:26:13;16.75;70.22
61000;SHT31;46879;45.658;11.814;2023-12-28T15:31:17;16.77;70.22
61000;SHT31;46879;45.658;11.814;2023-12-28T15:36:17;16.72;70.20
61000;SHT31;46879;45.658;11.814;2023-12-28T15:41:18;16.74;70.17
61000;SHT31;46879;45.658;11.814;2023-12-28T15:46:19;16.74;70.13
61000;SHT31;46879;45.658;11.814;2023-12-28T15:51:19;16.74;70.11
61000;SHT31;46879;45.658;11.814;2023-12-28T15:56:20;16.72;70.06
61000;SHT31;46879;45.658;11.814;2023-12-28T16:01:20;16.72;70.06
61000;SHT31;46879;45.658;11.814;2023-12-28T16:06:21;16.72;70.02
61000;SHT31;46879;45.658;11.814;2023-12-28T16:11:22;16.71;70.03
61000;SHT31;46879;45.658;11.814;2023-12-28T16:16:23;16.71;69.97
61000;SHT31;46879;45.658;11.814;2023-12-28T16:21:23;16.74;69.94
61000;SHT31;46879;45.658;11.814;2023-12-28T16:26:24;16.70;69.95
61000;SHT31;46879;45.658;11.814;2023-12-28T16:31:25;16.71;69.88
61000;SHT31;46879;45.658;11.814;2023-12-28T16:36:25;16.72;69.88
61000;SHT31;46879;45.658;11.814;2023-12-28T16:41:26;16.70;69.78
61000;SHT31;46879;45.658;11.814;2023-12-28T16:46:27;16.68;69.67
61000;SHT31;46879;45.658;11.814;2023-12-28T16:51:27;16.70;69.34
61000;SHT31;46879;45.658;11.814;2023-12-28T16:56:28;16.72;69.49
61000;SHT31;46879;45.658;11.814;2023-12-28T17:01:28;16.71;69.50
61000;SHT31;46879;45.658;11.814;2023-12-28T17:06:29;16.68;69.53
61000;SHT31;46879;45.658;11.814;2023-12-28T17:11:30;16.70;69.47
61000;SHT31;46879;45.658;11.814;2023-12-28T17:16:32;16.71;69.49
61000;SHT31;46879;45.658;11.814;2023-12-28T17:21:38;16.70;69.42
61000;SHT31;46879;45.658;11.814;2023-12-28T17:26:46;16.72;69.48
61000;SHT31;46879;45.658;11.814;2023-12-28T17:31:50;16.70;69.45
61000;SHT31;46879;45.658;11.814;2023-12-28T17:36:51;16.68;69.46
61000;SHT31;46879;45.658;11.814;2023-12-28T17:41:52;16.70;69.43
61000;SHT31;46879;45.658;11.814;2023-12-28T17:47:02;16.72;69.38
61000;SHT31;46879;45.658;11.814;2023-12-28T17:52:09;16.68;69.40
61000;SHT31;46879;45.658;11.814;2023-12-28T17:57:11;16.70;69.42
61000;SHT31;46879;45.658;11.814;2023-12-28T18:02:11;16.68;69.37
61000;SHT31;46879;45.658;11.814;2023-12-28T18:07:14;16.67;69.34
61000;SHT31;46879;45.658;11.814;2023-12-28T18:12:14;16.68;69.35
61000;SHT31;46879;45.658;11.814;2023-12-28T18:17:15;16.70;70.20
61000;SHT31;46879;45.658;11.814;2023-12-28T18:22:16;16.70;69.91
61000;SHT31;46879;45.658;11.814;2023-12-28T18:27:17;16.70;69.64
61000;SHT31;46879;45.658;11.814;2023-12-28T18:32:17;16.70;69.45
61000;SHT31;46879;45.658;11.814;2023-12-28T18:37:20;16.71;69.34
61000;SHT31;46879;45.658;11.814;2023-12-28T18:42:21;16.71;69.17
61000;SHT31;46879;45.658;11.814;2023-12-28T18:47:22;16.74;69.20
61000;SHT31;46879;45.658;11.814;2023-12-28T18:52:22;16.74;69.25
61000;SHT31;46879;45.658;11.814;2023-12-28T18:57:23;16.74;69.37
61000;SHT31;46879;45.658;11.814;2023-12-28T19:02:23;16.77;69.59
61000;SHT31;46879;45.658;11.814;2023-12-28T19:07:26;16.75;69.86
61000;SHT31;46879;45.658;11.814;2023-12-28T19:12:27;16.77;70.14
61000;SHT31;46879;45.658;11.814;2023-12-28T19:17:28;16.77;70.42
61000;SHT31;46879;45.658;11.814;2023-12-28T19:22:29;16.75;70.91
61000;SHT31;46879;45.658;11.814;2023-12-28T19:27:29;16.77;71.17
61000;SHT31;46879;45.658;11.814;2023-12-28T19:32:30;16.78;71.19
61000;SHT31;46879;45.658;11.814;2023-12-28T19:37:31;16.75;71.21
61000;SHT31;46879;45.658;11.814;2023-12-28T19:42:33;16.77;71.17
61000;SHT31;46879;45.658;11.814;2023-12-28T19:47:33;16.77;71.17
61000;SHT31;46879;45.658;11.814;2023-12-28T19:52:34;16.78;71.11
61000;SHT31;46879;45.658;11.814;2023-12-28T19:57:35;16.77;71.11
61000;SHT31;46879;45.658;11.814;2023-12-28T20:02:35;16.78;71.11
61000;SHT31;46879;45.658;11.814;2023-12-28T20:07:36;16.77;71.19
61000;SHT31;46879;45.658;11.814;2023-12-28T20:12:36;16.78;71.23
61000;SHT31;46879;45.658;11.814;2023-12-28T20:17:37;16.78;71.36
61000;SHT31;46879;45.658;11.814;2023-12-28T20:22:37;16.80;71.37
61000;SHT31;46879;45.658;11.814;2023-12-28T20:27:38;16.80;71.69
61000;SHT31;46879;45.658;11.814;2023-12-28T20:32:39;16.80;71.75
61000;SHT31;46879;45.658;11.814;2023-12-28T20:37:40;16.92;77.13
61000;SHT31;46879;45.658;11.814;2023-12-28T20:42:41;16.95;76.44
61000;SHT31;46879;45.658;11.814;2023-12-28T20:47:41;16.94;74.92
61000;SHT31;46879;45.658;11.814;2023-12-28T20:52:42;16.95;75.12
61000;SHT31;46879;45.658;11.814;2023-12-28T20:57:42;16.98;74.52
61000;SHT31;46879;45.658;11.814;2023-12-28T21:02:43;16.96;74.96
61000;SHT31;46879;45.658;11.814;2023-12-28T21:07:44;17.01;75.03
61000;SHT31;46879;45.658;11.814;2023-12-28T21:12:44;17.01;75.05
61000;SHT31;46879;45.658;11.814;2023-12-28T21:17:51;17.04;74.98
61000;SHT31;46879;45.658;11.814;2023-12-28T21:22:52;17.04;75.02
61000;SHT31;46879;45.658;11.814;2023-12-28T21:27:53;17.02;74.98
61000;SHT31;46879;45.658;11.814;2023-12-28T21:32:54;16.99;74.79
61000;SHT31;46879;45.658;11.814;2023-12-28T21:37:54;16.98;74.53
61000;SHT31;46879;45.658;11.814;2023-12-28T21:42:55;16.96;74.42
61000;SHT31;46879;45.658;11.814;2023-12-28T21:47:56;16.94;74.29
61000;SHT31;46879;45.658;11.814;2023-12-28T21:52:57;16.92;74.02
61000;SHT31;46879;45.658;11.814;2023-12-28T21:57:58;16.91;73.88
61000;SHT31;46879;45.658;11.814;2023-12-28T22:03:01;16.89;73.83
61000;SHT31;46879;45.658;11.814;2023-12-28T22:08:02;16.91;74.32
61000;SHT31;46879;45.658;11.814;2023-12-28T22:13:02;16.89;74.29
61000;SHT31;46879;45.658;11.814;2023-12-28T22:18:04;16.88;74.23
61000;SHT31;46879;45.658;11.814;2023-12-28T22:23:06;16.87;74.07
61000;SHT31;46879;45.658;11.814;2023-12-28T22:28:07;16.87;74.06
61000;SHT31;46879;45.658;11.814;2023-12-28T22:33:08;16.87;74.28
61000;SHT31;46879;45.658;11.814;2023-12-28T22:38:08;16.87;74.44
61000;SHT31;46879;45.658;11.814;2023-12-28T22:43:09;16.85;74.40
61000;SHT31;46879;45.658;11.814;2023-12-28T22:48:09;16.85;74.43
61000;SHT31;46879;45.658;11.814;2023-12-28T22:53:10;16.85;74.44
61000;SHT31;46879;45.658;11.814;2023-12-28T22:58:10;16.84;74.43
61000;SHT31;46879;45.658;11.814;2023-12-28T23:03:11;16.84;75.54
61000;SHT31;46879;45.658;11.814;2023-12-28T23:08:12;16.82;76.13
61000;SHT31;46879;45.658;11.814;2023-12-28T23:13:12;16.85;75.41
61000;SHT31;46879;45.658;11.814;2023-12-28T23:18:13;16.87;74.68
61000;SHT31;46879;45.658;11.814;2023-12-28T23:23:16;16.87;74.20
61000;SHT31;46879;45.658;11.814;2023-12-28T23:28:16;16.85;73.87
61000;SHT31;46879;45.658;11.814;2023-12-28T23:33:17;16.85;73.69
61000;SHT31;46879;45.658;11.814;2023-12-28T23:38:17;16.89;73.48
61000;SHT31;46879;45.658;11.814;2023-12-28T23:43:18;16.89;73.55
61000;SHT31;46879;45.658;11.814;2023-12-28T23:48:18;16.85;73.68
61000;SHT31;46879;45.658;11.814;2023-12-28T23:53:19;16.88;73.45
61000;SHT31;46879;45.658;11.814;2023-12-28T23:58:21;16.85;73.65
